Time;durP1;ratioP1;P1;durP2;ratioP2;P2;SDS_P1;SDS_P2;PMS_P1;PMS_P2;Temp;Humidity;BMP_temperature;BMP_pressure;BME280_temperature;BME280_humidity;BME280_pressure;Samples;Min_cycle;Max_cycle;Signal;HPM_P1;HPM_P2
2022/04/04 00:01:54;;;;;;;17.08;8.27;;;0.10;99.90;;;;;;4866709;29;20041;-73
2022/04/04 00:04:21;;;;;;;14.65;8.43;;;0.10;99.90;;;;;;4889740;29;20394;-73
2022/04/04 00:06:48;;;;;;;18.10;8.55;;;0.20;99.90;;;;;;4896347;29;20044;-73
2022/04/04 00:09:14;;;;;;;21.17;11.13;;;0.20;99.90;;;;;;4865162;29;20409;-73
2022/04/04 00:11:41;;;;;;;22.83;9.52;;;0.20;99.90;;;;;;4894991;29;20044;-73
2022/04/04 00:14:08;;;;;;;22.65;11.98;;;0.20;99.90;;;;;;4897057;29;20060;-73
2022/04/04 00:16:35;;;;;;;21.55;10.60;;;0.20;99.90;;;;;;4896786;29;20070;-73
2022/04/04 00:19:02;;;;;;;20.90;10.98;;;0.10;99.90;;;;;;4896782;29;20079;-73
2022/04/04 00:21:29;;;;;;;19.63;10.60;;;0.10;99.90;;;;;;4891549;29;20041;-73
2022/04/04 00:23:56;;;;;;;14.38;8.05;;;0.10;99.90;;;;;;4896850;29;20113;-73
2022/04/04 00:26:22;;;;;;;18.38;10.93;;;0.10;99.90;;;;;;4896888;29;20560;-73
2022/04/04 00:28:51;;;;;;;19.63;10.43;;;0.10;99.90;;;;;;4891373;29;20050;-74
2022/04/04 00:31:18;;;;;;;21.38;8.57;;;0.10;99.90;;;;;;4896283;29;20056;-74
2022/04/04 00:33:45;;;;;;;20.55;11.70;;;0.10;99.90;;;;;;4896777;29;20063;-74
2022/04/04 00:36:12;;;;;;;18.83;8.77;;;0.10;99.90;;;;;;4896651;29;20045;-74
2022/04/04 00:38:39;;;;;;;23.40;12.55;;;0.10;99.90;;;;;;4891535;29;20045;-74
2022/04/04 00:41:11;;;;;;;21.48;12.43;;;0.10;99.90;;;;;;4879495;29;20036;-73
2022/04/04 00:43:38;;;;;;;21.20;11.10;;;0.10;99.90;;;;;;4896784;29;20045;-74
2022/04/04 00:46:05;;;;;;;25.92;11.82;;;0.10;99.90;;;;;;4890014;29;20067;-74
2022/04/04 00:48:32;;;;;;;22.30;11.43;;;0.10;99.90;;;;;;4896508;29;20056;-74
2022/04/04 00:51:00;;;;;;;23.75;12.02;;;0.10;99.90;;;;;;4896286;29;20063;-73
2022/04/04 00:53:27;;;;;;;20.92;10.52;;;0.00;99.90;;;;;;4893548;29;20044;-73
2022/04/04 00:55:54;;;;;;;21.50;10.65;;;0.00;99.90;;;;;;4892186;29;20044;-74
2022/04/04 00:58:22;;;;;;;17.35;10.73;;;0.10;99.90;;;;;;4896390;29;20060;-74
2022/04/04 01:00:50;;;;;;;19.52;10.90;;;0.00;99.90;;;;;;4896055;29;20561;-74
2022/04/04 01:03:17;;;;;;;;;;;0.10;99.90;;;;;;4894624;29;20160;-74
2022/04/04 01:05:45;;;;;;;16.73;8.75;;;0.00;99.90;;;;;;4890937;29;19923;-74
2022/04/04 01:08:13;;;;;;;19.42;10.68;;;0.00;99.90;;;;;;4896315;29;20060;-74
2022/04/04 01:10:41;;;;;;;20.50;10.13;;;0.00;99.90;;;;;;4896021;29;20052;-73
2022/04/04 01:13:12;;;;;;;19.52;10.75;;;0.10;99.90;;;;;;4892685;29;20410;-74
2022/04/04 01:15:39;;;;;;;21.60;10.77;;;0.00;99.90;;;;;;4896014;29;20100;-74
2022/04/04 01:18:08;;;;;;;22.58;10.70;;;0.10;99.90;;;;;;4896982;29;20096;-74
2022/04/04 01:20:36;;;;;;;18.67;10.35;;;0.10;99.90;;;;;;4899844;29;20040;-74
2022/04/04 01:23:05;;;;;;;21.45;10.95;;;0.10;99.90;;;;;;4898938;29;20072;-74
2022/04/04 01:25:33;;;;;;;20.92;10.02;;;0.10;99.90;;;;;;4899854;29;20446;-74
2022/04/04 01:28:02;;;;;;;17.83;9.63;;;0.10;99.90;;;;;;4899957;29;20052;-74
2022/04/04 01:30:31;;;;;;;21.90;9.07;;;0.10;99.90;;;;;;4899656;29;20066;-74
2022/04/04 01:32:57;;;;;;;20.42;10.30;;;0.10;99.90;;;;;;4899038;29;20497;-74
2022/04/04 01:35:25;;;;;;;23.10;11.15;;;0.10;99.90;;;;;;4899626;29;20041;-74
2022/04/04 01:37:52;;;;;;;17.10;10.18;;;0.10;99.90;;;;;;4899830;29;20116;-74
2022/04/04 01:40:19;;;;;;;20.20;10.30;;;0.10;99.90;;;;;;4895836;29;20041;-74
2022/04/04 01:42:49;;;;;;;23.65;11.00;;;0.10;99.90;;;;;;4899716;29;20066;-74
2022/04/04 01:45:16;;;;;;;18.45;10.70;;;0.10;99.90;;;;;;4899831;29;20499;-73
2022/04/04 01:47:43;;;;;;;19.05;10.95;;;0.10;99.90;;;;;;4899689;29;20044;-74
2022/04/04 01:50:10;;;;;;;20.70;10.45;;;0.10;99.90;;;;;;4897286;29;20052;-74
2022/04/04 01:52:37;;;;;;;20.00;11.10;;;0.10;99.90;;;;;;4899687;29;20096;-74
2022/04/04 01:55:04;;;;;;;20.65;10.90;;;0.10;99.90;;;;;;4899530;29;20044;-74
2022/04/04 01:57:31;;;;;;;21.17;11.48;;;0.10;99.90;;;;;;4897619;29;20048;-74
2022/04/04 01:59:58;;;;;;;;;;;0.00;99.90;;;;;;4895690;29;20048;-74
2022/04/04 02:02:24;;;;;;;19.58;10.75;;;0.00;99.90;;;;;;4899497;29;19923;-74
2022/04/04 02:04:51;;;;;;;20.52;11.27;;;-0.10;99.90;;;;;;4899550;29;20083;-74
2022/04/04 02:07:18;;;;;;;14.73;8.10;;;-0.10;99.90;;;;;;4895600;29;20057;-74
2022/04/04 02:09:45;;;;;;;24.20;11.32;;;-0.10;99.90;;;;;;4899178;29;20088;-74
2022/04/04 02:12:12;;;;;;;18.13;10.15;;;-0.10;99.90;;;;;;4899219;29;20052;-74
2022/04/04 02:14:39;;;;;;;15.20;8.05;;;0.00;99.90;;;;;;4899380;29;20056;-74
2022/04/04 02:17:06;;;;;;;20.40;10.52;;;0.00;99.90;;;;;;4892537;29;20498;-74
2022/04/04 02:19:32;;;;;;;22.85;10.90;;;0.10;99.90;;;;;;4898765;29;20449;-74
2022/04/04 02:21:59;;;;;;;21.10;11.32;;;0.10;99.90;;;;;;4898953;29;20048;-74
2022/04/04 02:24:26;;;;;;;21.38;11.30;;;0.10;99.90;;;;;;4897074;29;20044;-74
2022/04/04 02:26:53;;;;;;;22.02;11.88;;;0.10;99.90;;;;;;4894771;29;20472;-74
2022/04/04 02:29:19;;;;;;;19.65;11.85;;;0.10;99.90;;;;;;4898413;29;20052;-74
2022/04/04 02:31:46;;;;;;;17.10;9.15;;;0.20;99.90;;;;;;4898803;29;20062;-74
2022/04/04 02:34:13;;;;;;;;;;;0.20;99.90;;;;;;4892030;29;20059;-74
2022/04/04 02:36:40;;;;;;;23.40;10.40;;;0.20;99.90;;;;;;4898504;29;19975;-74
2022/04/04 02:39:07;;;;;;;17.90;9.48;;;0.20;99.90;;;;;;4898758;29;20044;-74
2022/04/04 02:41:34;;;;;;;25.10;11.07;;;0.10;99.90;;;;;;4897325;29;20044;-74
2022/04/04 02:44:01;;;;;;;21.58;11.43;;;0.10;99.90;;;;;;4898650;29;20049;-74
2022/04/04 02:46:29;;;;;;;19.88;11.48;;;0.10;99.90;;;;;;4898626;29;20801;-74
2022/04/04 02:48:55;;;;;;;24.15;12.27;;;0.10;99.90;;;;;;4898713;29;20112;-74
2022/04/04 02:51:22;;;;;;;27.90;12.73;;;0.10;99.90;;;;;;4896351;29;20060;-74
2022/04/04 02:53:49;;;;;;;18.75;8.93;;;0.10;99.90;;;;;;4898097;29;20501;-74
2022/04/04 02:56:31;;;;;;;22.02;11.57;;;0.10;99.90;;;;;;4898342;29;20051;-74
2022/04/04 02:59:02;;;;;;;24.83;12.10;;;0.10;99.90;;;;;;4897688;29;20048;-74
2022/04/04 03:01:29;;;;;;;22.85;12.05;;;0.00;99.90;;;;;;4890520;29;20040;-74
2022/04/04 03:03:57;;;;;;;27.02;12.35;;;0.00;99.90;;;;;;4898172;29;20072;-74
2022/04/04 03:06:24;;;;;;;;;;;0.00;99.90;;;;;;4896633;29;20044;-74
2022/04/04 03:08:51;;;;;;;24.35;11.93;;;0.00;99.90;;;;;;4898121;29;20380;-74
2022/04/04 03:11:18;;;;;;;22.80;12.65;;;0.10;99.90;;;;;;4898007;29;20053;-74
2022/04/04 03:13:45;;;;;;;;;;;0.10;99.90;;;;;;4895521;29;20049;-74
2022/04/04 03:16:12;;;;;;;22.80;12.18;;;0.10;99.90;;;;;;4879097;29;19960;-74
2022/04/04 03:18:39;;;;;;;25.67;12.40;;;0.10;99.90;;;;;;4881125;29;20466;-74
2022/04/04 03:21:06;;;;;;;;;;;0.10;99.90;;;;;;4898196;29;20048;-74
2022/04/04 03:23:39;;;;;;;26.00;11.98;;;0.10;99.90;;;;;;4892869;29;19988;-74
2022/04/04 03:26:08;;;;;;;23.65;11.20;;;0.10;99.90;;;;;;4897927;29;20067;-74
2022/04/04 03:28:35;;;;;;;22.15;11.68;;;0.10;99.90;;;;;;4897910;29;20076;-74
2022/04/04 03:31:05;;;;;;;28.17;13.57;;;0.10;99.90;;;;;;4895427;29;20063;-74
2022/04/04 03:33:32;;;;;;;25.42;12.95;;;0.10;99.90;;;;;;4897897;29;20056;-74
2022/04/04 03:35:59;;;;;;;26.67;12.77;;;0.10;99.90;;;;;;4896478;29;20520;-74
2022/04/04 03:38:27;;;;;;;25.92;12.88;;;0.10;99.90;;;;;;4881242;29;20052;-74
2022/04/04 03:40:55;;;;;;;28.10;11.68;;;0.10;99.90;;;;;;4889365;29;20112;-74
2022/04/04 03:43:22;;;;;;;25.67;12.82;;;0.10;99.90;;;;;;4893274;29;20892;-74
2022/04/04 03:45:50;;;;;;;22.50;12.52;;;0.10;99.90;;;;;;4897546;29;20112;-74
2022/04/04 03:48:16;;;;;;;24.45;12.60;;;0.10;99.90;;;;;;4897725;29;20052;-74
2022/04/04 03:50:45;;;;;;;30.33;13.20;;;0.10;99.90;;;;;;4893196;29;20049;-74
2022/04/04 03:53:12;;;;;;;33.55;14.35;;;0.10;99.90;;;;;;4897244;29;20066;-74
2022/04/04 03:55:40;;;;;;;24.73;10.13;;;0.10;99.90;;;;;;4897680;29;20056;-74
2022/04/04 03:58:08;;;;;;;24.55;12.70;;;0.10;99.90;;;;;;4897205;29;20052;-74
2022/04/04 04:00:36;;;;;;;30.00;13.27;;;0.10;99.90;;;;;;4893260;29;20413;-74
2022/04/04 04:03:03;;;;;;;29.33;12.30;;;0.10;99.90;;;;;;4897375;29;20052;-74
2022/04/04 04:05:30;;;;;;;26.15;12.75;;;0.00;99.90;;;;;;4897088;29;20045;-74
2022/04/04 04:07:56;;;;;;;24.27;12.57;;;0.10;99.90;;;;;;4891692;29;20044;-74
2022/04/04 04:10:23;;;;;;;15.98;9.40;;;0.10;99.90;;;;;;4896199;29;20048;-74
2022/04/04 04:12:50;;;;;;;29.38;13.00;;;0.10;99.90;;;;;;4897279;29;20494;-74
2022/04/04 04:15:20;;;;;;;25.40;13.10;;;0.10;99.90;;;;;;4894909;29;20048;-74
2022/04/04 04:17:51;;;;;;;24.42;13.45;;;0.10;99.90;;;;;;4895924;29;20092;-73
2022/04/04 04:20:31;;;;;;;26.55;12.85;;;0.10;99.90;;;;;;4893926;29;20036;-73
2022/04/04 04:23:01;;;;;;;27.55;12.23;;;0.10;99.90;;;;;;4893343;29;20039;-73
2022/04/04 04:25:30;;;;;;;28.65;12.60;;;0.10;99.90;;;;;;4888731;29;20048;-75
2022/04/04 04:27:59;;;;;;;30.73;13.07;;;0.10;99.90;;;;;;4896651;29;20105;-73
2022/04/04 04:30:27;;;;;;;27.45;13.10;;;0.20;99.90;;;;;;4896455;29;20486;-74
2022/04/04 04:32:54;;;;;;;29.15;14.18;;;0.10;99.90;;;;;;4894625;29;20068;-73
2022/04/04 04:35:22;;;;;;;24.02;12.57;;;0.10;99.90;;;;;;4896030;29;20045;-74
2022/04/04 04:37:52;;;;;;;25.55;12.93;;;0.10;99.90;;;;;;4896395;29;20109;-74
2022/04/04 04:40:20;;;;;;;29.65;13.48;;;0.10;99.90;;;;;;4895036;29;20041;-74
2022/04/04 04:42:49;;;;;;;30.48;13.68;;;0.10;99.90;;;;;;4896534;29;20100;-74
2022/04/04 04:45:16;;;;;;;28.55;13.75;;;0.10;99.90;;;;;;4896286;29;20064;-72
2022/04/04 04:47:43;;;;;;;31.15;14.10;;;0.10;99.90;;;;;;4930782;23;20051;-68
2022/04/04 04:50:12;;;;;;;31.23;14.82;;;0.10;99.90;;;;;;4928669;29;20059;-66
2022/04/04 04:52:40;;;;;;;25.98;13.55;;;0.10;99.90;;;;;;4944360;29;20043;-68
2022/04/04 04:55:09;;;;;;;28.40;15.23;;;0.10;99.90;;;;;;4938718;29;20096;-69
2022/04/04 04:57:36;;;;;;;29.33;14.48;;;0.20;99.90;;;;;;4914441;29;20111;-69
2022/04/04 05:00:06;;;;;;;30.95;15.52;;;0.20;99.90;;;;;;4912057;29;20040;-68
2022/04/04 05:02:34;;;;;;;32.35;15.45;;;0.20;99.90;;;;;;4914286;29;20040;-69
2022/04/04 05:05:02;;;;;;;31.10;14.98;;;0.30;99.90;;;;;;4912927;29;20580;-68
2022/04/04 05:07:29;;;;;;;30.35;14.32;;;0.30;99.90;;;;;;4914171;29;20044;-68
2022/04/04 05:09:56;;;;;;;32.40;14.40;;;0.30;99.90;;;;;;4914417;29;20074;-69
2022/04/04 05:12:23;;;;;;;24.60;11.32;;;0.20;99.90;;;;;;4914750;29;20062;-68
2022/04/04 05:14:50;;;;;;;36.15;14.90;;;0.20;99.90;;;;;;4910239;29;20052;-69
2022/04/04 05:17:17;;;;;;;34.78;15.10;;;0.20;99.90;;;;;;4896644;29;20048;-69
2022/04/04 05:19:44;;;;;;;25.52;13.60;;;0.20;99.90;;;;;;4914698;29;20048;-69
2022/04/04 05:22:14;;;;;;;23.30;11.60;;;0.30;99.90;;;;;;4915144;29;20049;-69
2022/04/04 05:24:40;;;;;;;29.60;13.48;;;0.30;99.90;;;;;;4912877;29;20044;-67
2022/04/04 05:27:07;;;;;;;31.75;14.93;;;0.40;99.90;;;;;;4914721;29;20070;-66
2022/04/04 05:29:34;;;;;;;26.00;14.25;;;0.40;99.90;;;;;;4914615;29;20040;-67
2022/04/04 05:32:00;;;;;;;29.58;14.38;;;0.50;99.90;;;;;;4909439;29;20053;-68
2022/04/04 05:34:27;;;;;;;38.10;14.45;;;0.50;99.90;;;;;;4906959;29;20048;-68
2022/04/04 05:36:58;;;;;;;28.23;14.40;;;0.50;99.90;;;;;;4897836;29;20702;-69
2022/04/04 05:39:25;;;;;;;29.38;14.30;;;0.40;99.90;;;;;;4914941;29;20051;-67
2022/04/04 05:41:52;;;;;;;18.45;10.05;;;0.40;99.90;;;;;;4913148;29;20552;-68
2022/04/04 05:44:19;;;;;;;29.73;13.80;;;0.30;99.90;;;;;;4914042;29;20500;-68
2022/04/04 05:46:47;;;;;;;28.23;13.60;;;0.30;99.90;;;;;;4914032;29;20568;-68
2022/04/04 05:49:14;;;;;;;31.13;14.27;;;0.30;99.90;;;;;;4911007;29;20047;-68
2022/04/04 05:51:41;;;;;;;22.23;10.55;;;0.30;99.90;;;;;;4908545;29;20036;-68
2022/04/04 05:54:27;;;;;;;29.63;14.00;;;0.30;99.90;;;;;;4905150;29;20071;-68
2022/04/04 05:56:54;;;;;;;27.88;15.43;;;0.30;99.90;;;;;;4914307;29;20052;-68
2022/04/04 05:59:23;;;;;;;29.23;13.43;;;0.40;99.90;;;;;;4911317;29;20040;-68
2022/04/04 06:01:49;;;;;;;29.08;13.50;;;0.50;99.90;;;;;;4913587;29;20420;-67
2022/04/04 06:04:16;;;;;;;30.08;13.98;;;0.60;99.90;;;;;;4914511;29;20390;-68
2022/04/04 06:06:43;;;;;;;31.00;15.20;;;0.60;99.90;;;;;;4913758;29;20036;-68
2022/04/04 06:09:10;;;;;;;33.67;13.55;;;0.70;99.90;;;;;;4918020;29;20064;-68
2022/04/04 06:11:37;;;;;;;21.13;11.18;;;0.70;99.90;;;;;;4917706;29;20054;-68
2022/04/04 06:14:04;;;;;;;;;;;0.80;99.90;;;;;;4916173;29;20048;-68
2022/04/04 06:16:30;;;;;;;27.52;12.93;;;0.80;99.90;;;;;;4917907;29;20150;-69
2022/04/04 06:18:59;;;;;;;21.40;10.75;;;0.80;99.90;;;;;;4917910;29;20092;-68
2022/04/04 06:21:25;;;;;;;29.23;13.95;;;0.70;99.90;;;;;;4917566;29;20040;-68
2022/04/04 06:23:52;;;;;;;30.23;15.35;;;0.70;99.90;;;;;;4900234;29;20043;-69
2022/04/04 06:26:19;;;;;;;39.85;15.00;;;0.70;99.90;;;;;;4917735;29;20115;-68
2022/04/04 06:28:46;;;;;;;28.92;13.48;;;0.70;99.90;;;;;;4917800;29;20515;-68
2022/04/04 06:31:12;;;;;;;22.38;12.63;;;0.70;99.90;;;;;;4913101;29;20124;-68
2022/04/04 06:33:39;;;;;;;24.65;10.23;;;0.70;99.90;;;;;;4917588;29;20047;-68
2022/04/04 06:36:06;;;;;;;21.83;11.75;;;0.80;99.90;;;;;;4917683;29;20431;-68
2022/04/04 06:38:33;;;;;;;26.88;13.05;;;0.80;99.90;;;;;;4916915;29;20074;-68
2022/04/04 06:41:00;;;;;;;28.30;12.82;;;0.90;99.90;;;;;;4916690;29;20497;-68
2022/04/04 06:43:27;;;;;;;26.17;13.05;;;1.00;99.90;;;;;;4898761;29;20048;-68
2022/04/04 06:45:53;;;;;;;25.55;12.88;;;1.10;99.90;;;;;;4898395;29;20041;-68
2022/04/04 06:48:22;;;;;;;20.67;9.20;;;1.20;99.90;;;;;;4898316;29;20048;-68
2022/04/04 06:50:49;;;;;;;20.20;11.45;;;1.30;99.90;;;;;;4911979;29;20044;-68
2022/04/04 06:53:16;;;;;;;24.85;12.93;;;1.40;99.90;;;;;;4917243;29;20059;-68
2022/04/04 06:55:44;;;;;;;27.13;12.23;;;1.50;99.90;;;;;;4917153;29;20067;-68
2022/04/04 06:58:11;;;;;;;19.23;11.10;;;1.60;99.90;;;;;;4913399;29;20044;-68
2022/04/04 07:00:38;;;;;;;22.83;11.48;;;1.60;99.90;;;;;;4917070;29;20063;-68
2022/04/04 07:03:08;;;;;;;16.08;8.55;;;1.70;99.90;;;;;;4917262;29;20047;-68
2022/04/04 07:05:35;;;;;;;20.23;12.30;;;1.80;99.90;;;;;;4917508;29;20382;-68
2022/04/04 07:08:02;;;;;;;21.60;11.90;;;1.90;99.90;;;;;;4914585;29;20071;-68
2022/04/04 07:10:28;;;;;;;23.38;12.55;;;1.90;99.90;;;;;;4916782;29;20056;-68
2022/04/04 07:12:55;;;;;;;17.33;8.77;;;2.00;99.90;;;;;;4917038;29;20165;-68
2022/04/04 07:15:23;;;;;;;15.65;9.57;;;2.10;99.90;;;;;;4909526;29;20056;-68
2022/04/04 07:17:50;;;;;;;23.88;11.60;;;2.20;99.90;;;;;;4916542;29;20048;-68
2022/04/04 07:20:19;;;;;;;25.23;11.55;;;2.30;99.90;;;;;;4916689;29;20409;-68
2022/04/04 07:22:45;;;;;;;23.77;12.38;;;2.50;99.90;;;;;;4914766;29;20110;-68
2022/04/04 07:25:14;;;;;;;21.73;9.65;;;2.60;99.90;;;;;;4916698;29;20051;-68
2022/04/04 07:27:42;;;;;;;23.83;13.38;;;2.60;99.90;;;;;;4916753;29;20044;-68
2022/04/04 07:30:11;;;;;;;22.33;11.70;;;2.60;99.90;;;;;;4916197;29;20457;-68
2022/04/04 07:32:38;;;;;;;27.50;13.95;;;2.70;99.90;;;;;;4910494;29;20036;-68
2022/04/04 07:35:11;;;;;;;26.38;13.93;;;2.80;99.90;;;;;;4916586;29;20107;-68
2022/04/04 07:37:38;;;;;;;26.65;12.80;;;2.80;99.90;;;;;;4916741;29;20500;-68
2022/04/04 07:40:06;;;;;;;20.85;11.15;;;2.90;99.90;;;;;;4908929;29;20096;-68
2022/04/04 07:42:33;;;;;;;21.45;12.70;;;3.00;99.90;;;;;;4916130;29;20052;-68
2022/04/04 07:45:00;;;;;;;18.42;9.43;;;3.10;99.90;;;;;;4916426;29;20084;-68
2022/04/04 07:47:27;;;;;;;23.13;12.13;;;3.10;99.90;;;;;;4915744;29;20051;-68
2022/04/04 07:49:53;;;;;;;23.33;12.55;;;3.30;99.90;;;;;;4911600;29;20044;-68
2022/04/04 07:52:20;;;;;;;21.98;12.27;;;3.40;99.90;;;;;;4916261;29;20059;-68
2022/04/04 07:54:47;;;;;;;21.02;11.57;;;3.30;99.90;;;;;;4916212;29;20048;-67
2022/04/04 07:57:15;;;;;;;21.98;12.13;;;3.30;99.90;;;;;;4915950;29;20048;-68
2022/04/04 07:59:42;;;;;;;19.13;11.85;;;3.40;99.90;;;;;;4910398;29;20044;-68
2022/04/04 08:02:08;;;;;;;21.27;11.98;;;3.40;99.90;;;;;;4916097;29;20434;-68
2022/04/04 08:04:35;;;;;;;23.25;11.30;;;3.50;99.90;;;;;;4916194;29;20052;-68
2022/04/04 08:07:02;;;;;;;20.95;11.65;;;3.80;99.90;;;;;;4912395;29;20052;-68
2022/04/04 08:09:29;;;;;;;17.70;10.77;;;4.00;99.90;;;;;;4915444;29;20044;-68
2022/04/04 08:11:56;;;;;;;17.30;10.95;;;4.10;99.90;;;;;;4916066;29;20103;-68
2022/04/04 08:14:23;;;;;;;20.65;11.30;;;4.10;99.90;;;;;;4915981;29;20371;-68
2022/04/04 08:16:50;;;;;;;17.75;10.85;;;4.10;99.90;;;;;;4911419;29;20114;-67
2022/04/04 08:19:18;;;;;;;21.05;9.52;;;4.10;99.90;;;;;;4914173;29;20048;-68
2022/04/04 08:21:45;;;;;;;13.45;8.55;;;4.20;99.90;;;;;;4916145;29;20397;-68
2022/04/04 08:24:13;;;;;;;11.50;6.80;;;4.30;99.90;;;;;;4898333;29;20052;-68
2022/04/04 08:26:40;;;;;;;15.85;9.43;;;4.30;99.90;;;;;;4909250;29;20397;-68
2022/04/04 08:29:08;;;;;;;;;;;4.50;99.90;;;;;;4915588;29;20066;-68
2022/04/04 08:31:37;;;;;;;19.15;11.48;;;4.60;99.90;;;;;;4915256;29;19927;-68
2022/04/04 08:34:05;;;;;;;20.70;11.55;;;4.70;99.90;;;;;;4913007;29;20052;-68
2022/04/04 08:36:38;;;;;;;15.65;9.63;;;4.80;99.90;;;;;;4915200;29;20127;-68
2022/04/04 08:39:06;;;;;;;12.88;8.00;;;4.90;99.90;;;;;;4915498;29;20044;-68
2022/04/04 08:41:36;;;;;;;14.50;7.82;;;5.20;99.90;;;;;;4915001;29;20054;-68
2022/04/04 08:44:03;;;;;;;14.20;8.52;;;5.40;99.90;;;;;;4912106;29;20044;-68
2022/04/04 08:46:33;;;;;;;16.35;8.73;;;5.60;99.90;;;;;;4915262;29;20052;-68
2022/04/04 08:49:04;;;;;;;13.60;7.90;;;5.80;99.90;;;;;;4915444;29;20059;-68
2022/04/04 08:51:31;;;;;;;15.52;8.05;;;5.80;99.90;;;;;;4913939;29;20411;-68
2022/04/04 08:53:58;;;;;;;14.50;8.23;;;5.80;99.90;;;;;;4915132;29;20413;-69
2022/04/04 08:56:26;;;;;;;16.42;7.80;;;5.90;99.90;;;;;;4915115;29;20059;-68
2022/04/04 08:58:54;;;;;;;12.10;7.30;;;6.00;99.90;;;;;;4908609;29;20036;-68
2022/04/04 09:01:22;;;;;;;16.38;8.05;;;6.10;99.90;;;;;;4914006;29;20127;-68
2022/04/04 09:04:16;;;;;;;16.10;8.48;;;6.00;99.90;;;;;;4915019;29;20084;-68
2022/04/04 09:06:52;;;;;;;16.58;7.93;;;6.00;99.90;;;;;;4902249;29;20048;-69
2022/04/04 09:09:39;;;;;;;10.85;7.43;;;6.10;99.90;;;;;;4913749;29;20111;-68
2022/04/04 09:12:10;;;;;;;17.73;7.75;;;6.30;99.90;;;;;;4902115;29;20469;-68
2022/04/04 09:14:47;;;;;;;17.45;7.55;;;6.40;99.90;;;;;;4915444;29;20466;-68
2022/04/04 09:17:15;;;;;;;13.95;8.00;;;6.30;99.90;;;;;;4906378;29;20052;-68
2022/04/04 09:19:43;;;;;;;11.18;7.38;;;6.20;99.90;;;;;;4914640;29;20040;-68
2022/04/04 09:22:12;;;;;;;13.52;7.45;;;6.20;99.90;;;;;;4915078;29;20044;-68
2022/04/04 09:24:52;;;;;;;15.10;8.25;;;6.00;99.90;;;;;;4910871;29;20040;-69
2022/04/04 09:27:23;;;;;;;14.05;8.07;;;6.10;99.90;;;;;;4914758;29;20056;-68
2022/04/04 09:29:53;;;;;;;12.00;7.90;;;6.10;99.90;;;;;;4914672;29;20040;-68
2022/04/04 09:32:20;;;;;;;15.82;7.28;;;6.20;99.90;;;;;;4910303;29;20045;-68
2022/04/04 09:34:54;;;;;;;14.98;8.23;;;6.30;99.90;;;;;;4914919;29;20099;-68
2022/04/04 09:37:22;;;;;;;14.55;7.95;;;6.40;99.90;;;;;;4914776;29;20055;-68
2022/04/04 09:39:51;;;;;;;14.55;8.02;;;6.50;99.90;;;;;;4913797;29;20048;-68
2022/04/04 09:42:38;;;;;;;14.40;8.38;;;6.30;99.90;;;;;;4912179;29;20127;-68
2022/04/04 09:45:10;;;;;;;10.63;7.63;;;6.40;99.90;;;;;;4918595;29;20098;-68
2022/04/04 09:47:48;;;;;;;14.63;7.97;;;6.30;99.90;;;;;;4918406;29;20075;-68
2022/04/04 09:50:43;;;;;;;12.95;7.35;;;6.20;99.90;;;;;;4912667;29;20170;-68
2022/04/04 09:53:12;;;;;;;18.55;8.60;;;6.40;99.90;;;;;;4918539;29;20075;-68
2022/04/04 09:55:43;;;;;;;19.73;8.02;;;6.60;99.90;;;;;;4918349;29;20515;-68
2022/04/04 09:58:13;;;;;;;12.32;7.55;;;6.60;99.90;;;;;;4914287;29;20040;-68
2022/04/04 10:00:42;;;;;;;17.58;8.45;;;6.50;99.90;;;;;;4917685;29;20040;-68
2022/04/04 10:03:12;;;;;;;13.93;8.07;;;6.30;99.90;;;;;;4918392;29;20052;-68
2022/04/04 10:05:55;;;;;;;12.38;7.90;;;6.30;99.90;;;;;;4918463;29;20434;-68
2022/04/04 10:08:25;;;;;;;16.20;7.85;;;6.40;99.90;;;;;;4912345;29;20052;-68
2022/04/04 10:10:53;;;;;;;14.18;7.95;;;6.40;99.90;;;;;;4917631;29;20502;-68
2022/04/04 10:13:21;;;;;;;14.63;8.35;;;6.20;99.90;;;;;;4918090;29;20128;-68
2022/04/04 10:15:49;;;;;;;13.20;7.50;;;6.20;99.90;;;;;;4918072;29;20080;-68
2022/04/04 10:18:16;;;;;;;15.68;8.70;;;6.20;99.90;;;;;;4915268;29;20501;-68
2022/04/04 10:20:44;;;;;;;13.57;8.68;;;6.30;99.90;;;;;;4917688;29;20052;-69
2022/04/04 10:23:13;;;;;;;15.38;8.40;;;6.40;99.90;;;;;;4918011;29;20472;-68
2022/04/04 10:25:42;;;;;;;13.40;8.18;;;6.70;99.90;;;;;;4917812;29;20040;-68
2022/04/04 10:28:09;;;;;;;11.48;7.45;;;6.70;99.90;;;;;;4912717;29;20044;-68
2022/04/04 10:30:40;;;;;;;14.52;7.57;;;6.60;99.90;;;;;;4917389;29;20103;-68
2022/04/04 10:33:24;;;;;;;10.70;6.75;;;6.50;99.90;;;;;;4917716;29;20124;-68
2022/04/04 10:36:01;;;;;;;10.18;6.65;;;6.40;99.90;;;;;;4911571;29;20040;-67
2022/04/04 10:38:29;;;;;;;12.55;7.50;;;6.40;99.90;;;;;;4917701;29;20040;-69
2022/04/04 10:40:57;;;;;;;13.85;7.63;;;6.40;99.90;;;;;;4917400;29;20401;-68
2022/04/04 10:43:24;;;;;;;12.25;7.40;;;6.30;99.90;;;;;;4914899;29;20501;-68
2022/04/04 10:46:00;;;;;;;14.55;7.47;;;6.30;99.90;;;;;;4917839;29;20048;-69
2022/04/04 10:48:50;;;;;;;12.73;8.07;;;6.40;99.90;;;;;;4930937;23;20055;-72
2022/04/04 10:51:49;;;;;;;12.65;7.32;;;6.20;99.90;;;;;;4916109;29;20048;-72
2022/04/04 10:54:22;;;;;;;15.10;8.02;;;6.20;99.90;;;;;;4910846;29;20285;-73
2022/04/04 10:56:49;;;;;;;13.40;8.25;;;6.40;99.90;;;;;;4931244;29;20119;-74
2022/04/04 10:59:16;;;;;;;12.68;8.45;;;6.40;99.90;;;;;;4936009;29;20382;-75
2022/04/04 11:01:51;;;;;;;12.00;7.97;;;6.50;99.90;;;;;;4905371;29;20040;-72
2022/04/04 11:04:29;;;;;;;11.68;8.20;;;6.70;99.90;;;;;;4917012;29;20195;-72
2022/04/04 11:09:55;;;;;;;12.50;7.47;;;6.70;99.90;;;;;;4908824;29;20509;-72
2022/04/04 11:12:25;;;;;;;12.38;7.70;;;6.70;99.90;;;;;;4917063;29;20044;-74
2022/04/04 11:15:03;;;;;;;14.13;8.27;;;6.50;99.90;;;;;;4916819;29;20108;-72
2022/04/04 11:17:30;;;;;;;11.85;8.23;;;6.50;99.90;;;;;;4912331;29;20047;-74
2022/04/04 11:20:32;;;;;;;;;;;6.40;99.90;;;;;;4916719;29;20068;-72
2022/04/04 11:23:11;;;;;;;12.25;8.23;;;6.30;99.90;;;;;;4912656;29;20391;-74
2022/04/04 11:25:49;;;;;;;14.45;7.80;;;6.40;99.90;;;;;;4917359;29;20054;-74
2022/04/04 11:28:17;;;;;;;;;;;6.30;99.90;;;;;;4911783;29;20400;-74
2022/04/04 11:30:44;;;;;;;14.02;8.63;;;6.30;99.90;;;;;;4916230;29;19931;-74
2022/04/04 11:33:18;;;;;;;14.77;8.23;;;6.30;99.90;;;;;;4916751;29;20126;-73
2022/04/04 11:35:48;;;;;;;15.20;8.30;;;6.30;99.90;;;;;;4916503;29;20132;-74
2022/04/04 11:38:18;;;;;;;13.93;8.07;;;6.20;99.90;;;;;;4908942;29;20042;-74
2022/04/04 11:40:52;;;;;;;15.25;7.75;;;6.10;99.90;;;;;;4916070;29;20412;-74
2022/04/04 11:43:21;;;;;;;13.95;8.13;;;6.20;99.90;;;;;;4916442;29;20067;-75
2022/04/04 11:45:52;;;;;;;13.98;8.23;;;6.20;99.90;;;;;;4914196;29;20060;-75
2022/04/04 11:48:24;;;;;;;15.10;7.50;;;6.40;99.90;;;;;;4914939;29;20056;-74
2022/04/04 11:50:56;;;;;;;15.23;9.05;;;6.50;99.90;;;;;;4916043;29;20084;-74
2022/04/04 11:53:26;;;;;;;13.45;8.45;;;6.50;99.90;;;;;;4913773;29;20052;-74
2022/04/04 11:56:02;;;;;;;14.30;7.93;;;6.60;99.90;;;;;;4911779;29;20091;-74
2022/04/04 11:58:31;;;;;;;12.98;8.13;;;6.60;99.90;;;;;;4916298;29;20408;-74
2022/04/04 12:01:04;;;;;;;11.95;7.30;;;6.60;99.90;;;;;;4915746;29;20052;-74
2022/04/04 12:03:32;;;;;;;16.08;7.88;;;6.60;99.90;;;;;;4911794;29;20040;-73
2022/04/04 12:06:06;;;;;;;13.00;7.65;;;6.60;99.90;;;;;;4915963;29;20519;-72
2022/04/04 12:08:35;;;;;;;12.27;7.47;;;6.60;99.90;;;;;;4916072;29;20119;-73
2022/04/04 12:11:02;;;;;;;12.07;7.70;;;6.70;99.90;;;;;;4914574;29;20112;-74
2022/04/04 12:13:29;;;;;;;12.88;7.95;;;6.70;99.90;;;;;;4908381;29;20054;-72
2022/04/04 12:15:56;;;;;;;13.13;8.30;;;6.60;99.90;;;;;;4915919;29;20116;-73
2022/04/04 12:18:28;;;;;;;16.15;8.93;;;6.70;99.90;;;;;;4915612;29;20465;-75
2022/04/04 12:21:01;;;;;;;13.32;7.88;;;6.60;99.90;;;;;;4913868;29;20401;-75
2022/04/04 12:26:17;;;;;;;15.02;8.68;;;6.70;99.90;;;;;;4896823;29;20060;-74
2022/04/04 12:28:50;;;;;;;13.23;8.48;;;6.80;99.90;;;;;;4896478;29;20423;-75
2022/04/04 12:31:22;;;;;;;18.63;9.15;;;6.90;99.90;;;;;;4896740;29;20095;-74
2022/04/04 12:34:10;;;;;;;16.58;8.27;;;7.00;99.90;;;;;;4915727;29;20501;-73
2022/04/04 12:36:42;;;;;;;13.77;8.33;;;7.00;99.90;;;;;;4915441;29;20052;-74
2022/04/04 12:39:16;;;;;;;14.93;8.52;;;7.10;99.90;;;;;;4911237;29;20044;-75
2022/04/04 12:41:51;;;;;;;12.45;7.93;;;7.20;99.90;;;;;;4915175;29;20044;-75
2022/04/04 12:44:20;;;;;;;14.85;8.07;;;7.30;99.90;;;;;;4915353;29;20489;-73
2022/04/04 12:46:47;;;;;;;13.85;8.77;;;7.20;99.90;;;;;;4909333;29;20049;-74
2022/04/04 12:49:18;;;;;;;14.00;8.63;;;7.40;99.90;;;;;;4913629;29;20095;-74
2022/04/04 12:51:53;;;;;;;12.60;7.90;;;7.30;99.90;;;;;;4915182;29;20044;-74
2022/04/04 12:54:24;;;;;;;14.15;8.43;;;7.30;99.90;;;;;;4898141;29;20055;-75
2022/04/04 12:56:52;;;;;;;11.13;7.72;;;7.30;99.90;;;;;;4897391;29;20048;-75
2022/04/04 12:59:20;;;;;;;12.40;8.02;;;7.40;99.90;;;;;;4914790;29;20063;-74